Latest Coastal Weather Observations for Avalon

IDV60701

Issued at 6:22 am EST Wednesday 24 May 2017 (issued every 10 minutes, with the page automatically refreshed every 10 minutes)

About coastal observations | Map of coastal stations | Coastal observations for VIC | Marine services | Other Formats
Station Details ID: 087113 Name: AVALON AIRPORT Lat: -38.03 Lon: 144.48 Height: 10.6 m
Data from the previous 72 hours. | See also: Recent months at Avalon
Date/Time
EST
Temp
°C
Wind Pressure Rain since
9am
mm
Weather Cloud Vis
km
Sea
Height
m
Swell
Dir  Spd
kts
Gust
kts
hPa Trend Height
m
Period
s
Dir
24/06:00am 10.8 NW 11 14 1012.7 - 0.0 - Mostly clear 10 - - - -
24/05:30am 9.8 WNW 8 9 1012.7 - 0.0 - Partly cloudy 10 - - - -
24/05:00am 8.7 WNW 6 7 1012.4 - 0.0 - - 10 - - - -
24/04:30am 8.2 CALM 0 0 1012.1 - 0.0 - - 10 - - - -
24/04:00am 9.4 WNW 4 5 1011.8 - 0.0 - - 10 - - - -
24/03:30am 10.5 NNW 5 6 1011.8 - 0.0 - - 10 - - - -
24/03:00am 10.4 NNW 5 6 1012.0 - 0.0 - Mostly cloudy 10 - - - -
24/02:30am 10.1 NNW 4 5 1012.0 - 0.0 - - 10 - - - -
24/02:00am 9.6 CALM 0 0 1011.8 - 0.0 - - 10 - - - -
24/01:30am 10.4 CALM 0 0 1011.8 - 0.0 - - 10 - - - -
24/01:00am 11.1 N 5 6 1012.0 - 0.0 - Partly cloudy 10 - - - -
24/12:30am 11.5 N 7 8 1012.2 - 0.0 - Partly cloudy 10 - - - -
24/12:00am 10.8 N 8 9 1012.5 - 0.0 - Mostly cloudy 10 - - - -
 
Date/Time
EST
Temp
°C
Wind Pressure Rain since
9am
mm
Weather Cloud Vis
km
Sea
Height
m
Swell
Dir  Spd
kts
Gust
kts
hPa Trend Height
m
Period
s
Dir
23/11:30pm 10.3 N 8 9 1012.9 - 0.0 - - 10 - - - -
23/11:00pm 11.2 N 7 9 1013.1 - 0.0 - - 10 - - - -
23/10:30pm 11.3 N 7 8 1013.4 - 0.0 - - 10 - - - -
23/10:00pm 12.1 N 7 8 1013.6 - 0.0 - - 10 - - - -
23/09:30pm 12.7 N 6 7 1013.7 - 0.0 - Partly cloudy 10 - - - -
23/09:00pm 14.1 N 8 9 1013.7 - 0.0 - Cloudy 10 - - - -
23/08:30pm 14.2 N 6 8 1013.8 - 0.0 - Partly cloudy 10 - - - -
23/08:00pm 14.3 N 6 7 1013.9 - 0.0 - Partly cloudy 10 - - - -
23/07:30pm 14.2 N 8 9 1013.7 - 0.0 - Partly cloudy 10 - - - -
23/07:00pm 13.3 N 6 7 1013.6 - 0.0 - Partly cloudy 10 - - - -
23/06:30pm 14.0 N 7 7 1013.6 - 0.0 - Partly cloudy 10 - - - -
23/06:00pm 13.9 N 7 9 1013.5 - 0.0 - Partly cloudy 10 - - - -
23/05:30pm 14.0 NNW 7 8 1013.5 - 0.0 - - 10 - - - -
23/05:00pm 16.1 NNW 8 10 1013.4 - 0.0 - - 10 - - - -
23/04:30pm 17.8 NNW 10 13 1013.1 - 0.0 - - 10 - - - -
23/04:00pm 18.6 NNW 13 18 1013.1 - 0.0 - - 10 - - - -
23/03:30pm 19.5 NW 12 15 1013.0 - 0.0 - Partly cloudy 10 - - - -
23/03:00pm 19.4 SE 6 9 1013.3 - 0.0 - Mostly cloudy 10 - - - -
23/02:30pm 18.6 ESE 7 8 1013.4 - 0.0 - Partly cloudy 10 - - - -
23/02:00pm 18.5 SSW 2 4 1013.7 - 0.0 - Partly cloudy 10 - - - -
23/01:30pm 18.6 CALM 0 1 1013.9 - 0.0 - Partly cloudy 10 - - - -
23/01:00pm 19.1 N 5 8 1014.2 - 0.0 - - 10 - - - -
23/12:30pm 17.9 N 5 8 1014.7 - 0.0 - Partly cloudy 10 - - - -
23/12:00pm 17.2 NNE 9 11 1015.5 - 0.0 - Mostly cloudy 10 - - - -
23/11:30am 17.4 NNE 11 14 1015.8 - 0.0 - Partly cloudy 10 - - - -
23/11:00am 16.0 NNE 11 15 1016.1 - 0.0 - Partly cloudy 10 - - - -
23/10:30am 15.4 NNE 8 11 1016.5 - 0.0 - Partly cloudy 10 - - - -
23/10:00am 14.7 NNE 10 12 1016.4 - 0.0 - Cloudy 10 - - - -
23/09:30am 14.1 N 11 15 1016.7 - 0.0 - Cloudy 10 - - - -
23/09:00am 14.2 N 13 17 1016.9 - 0.0 Drizzle Cloudy 10 - - - -
23/08:30am 14.1 N 14 19 1016.8 - 0.0 - Partly cloudy 10 - - - -
23/08:00am 14.2 N 15 20 1017.0 - 0.0 - Cloudy 10 - - - -
23/07:30am 14.4 N 14 19 1016.6 - 0.0 - Cloudy 10 - - - -
23/07:00am 14.1 N 11 15 1016.7 - 0.0 - Partly cloudy 10 - - - -
23/06:30am 14.6 N 11 14 1016.8 - 0.0 - Partly cloudy 10 - - - -
23/06:00am 15.2 N 13 16 1017.4 - 0.0 - Cloudy 10 - - - -
23/05:30am 15.5 NNW 10 13 1017.5 - 0.0 - Partly cloudy 10 - - - -
23/05:00am 16.1 NNW 12 17 1017.0 - 0.0 - Partly cloudy 10 - - - -
23/04:30am 15.9 N 13 18 1016.4 - 0.0 - Partly cloudy 10 - - - -
23/04:00am 16.0 N 17 23 1016.2 - 0.0 - Partly cloudy 10 - - - -
23/03:30am 15.8 N 13 19 1016.2 - 0.0 - Partly cloudy 10 - - - -
23/03:00am 15.2 N 7 9 1016.6 - 0.0 - Cloudy 10 - - - -
23/02:30am 15.2 NNE 7 11 1016.5 - 0.0 - - 10 - - - -
23/02:00am 14.6 NNE 5 7 1016.7 - 0.0 - - 10 - - - -
23/01:30am 16.1 NNE 8 11 1017.0 - 0.0 - - 10 - - - -
23/01:00am 16.2 N 9 12 1017.3 - 0.0 - - 10 - - - -
23/12:30am 15.1 NE 7 10 1016.6 - 0.0 - - 10 - - - -
23/12:00am 15.9 NNE 10 13 1016.9 - 0.0 - Cloudy 10 - - - -
 
Date/Time
EST
Temp
°C
Wind Pressure Rain since
9am
mm
Weather Cloud Vis
km
Sea
Height
m
Swell
Dir  Spd
kts
Gust
kts
hPa Trend Height
m
Period
s
Dir
22/11:30pm 15.9 NNE 7 9 1017.4 - 0.0 - - 10 - - - -
22/11:00pm 16.0 NNE 6 8 1017.5 - 0.0 - - 10 - - - -
22/10:30pm 14.9 CALM 0 2 1017.6 - 0.0 - - 10 - - - -
22/10:00pm 15.3 NE 9 12 1017.0 - 0.0 - - 10 - - - -
22/09:30pm 15.5 NE 9 11 1017.1 - 0.0 - Partly cloudy 10 - - - -
22/09:00pm 15.5 NE 9 11 1017.0 - 0.0 - Cloudy 10 - - - -
22/08:30pm 15.7 NE 9 11 1017.0 - 0.0 - - 10 - - - -
22/08:00pm 15.2 NE 8 10 1017.0 - 0.0 - - 10 - - - -
22/07:30pm 15.2 NE 8 11 1017.1 - 0.0 - - 10 - - - -
22/07:00pm 14.0 NE 6 7 1017.2 - 0.0 - - 10 - - - -
22/06:30pm 14.8 NNE 4 5 1017.6 - 0.0 - - 10 - - - -
22/06:00pm 15.6 NE 6 9 1017.2 - 0.0 - Cloudy 10 - - - -
22/05:30pm 17.1 NNE 11 14 1016.9 - 0.0 - - 10 - - - -
22/05:00pm 17.2 NNE 11 14 1016.9 - 0.0 - - 10 - - - -
22/04:30pm 17.9 NNE 12 19 1016.7 - 0.0 - - 10 - - - -
22/04:00pm 19.2 NNE 13 17 1016.8 - 0.0 - - 10 - - - -
22/03:30pm 19.7 NNE 13 18 1016.9 - 0.0 - - 10 - - - -
22/03:00pm 19.8 NNE 13 19 1017.3 - 0.0 - - 10 - - - -
22/02:30pm 20.1 NNE 13 17 1017.2 - 0.0 - - 10 - - - -
22/02:00pm 19.8 NNE 15 21 1017.3 - 0.0 - - 10 - - - -
22/01:30pm 19.9 NNE 17 22 1017.6 - 0.0 - - 10 - - - -
22/01:00pm 19.5 NNE 15 21 1018.2 - 0.0 - - 10 - - - -
22/12:30pm 19.5 NNE 11 16 1019.1 - 0.0 - - 10 - - - -
22/12:00pm 18.8 NNE 12 18 1019.6 - 0.0 - - 10 - - - -
22/11:30am 18.2 NNE 13 18 1020.2 - 0.0 - - 10 - - - -
22/11:00am 17.8 N 14 19 1020.5 - 0.0 - - 10 - - - -
22/10:30am 17.6 NNE 10 13 1020.8 - 0.0 - - 10 - - - -
22/10:00am 16.8 NNE 13 17 1021.0 - 0.0 - - 10 - - - -
22/09:30am 15.5 N 10 15 1021.3 - 0.0 - - 10 - - - -
22/09:00am 14.3 N 10 13 1021.5 - 0.0 - - 10 - - - -
22/08:30am 13.1 NNE 13 15 1021.3 - 0.0 - - 10 - - - -
22/08:00am 12.6 NNE 11 16 1021.2 - 0.0 - - 10 - - - -
22/07:30am 11.9 NNE 10 13 1021.1 - 0.0 - - 10 - - - -
22/07:00am 12.3 NNE 10 13 1021.1 - 0.0 - - 10 - - - -
22/06:30am 9.7 NNE 7 8 1021.0 - 0.0 - - 10 - - - -
22/06:00am 9.9 NNE 8 10 1020.9 - 0.0 - - 10 - - - -
22/05:30am 8.7 NE 7 8 1020.7 - 0.0 - - 10 - - - -
22/05:00am 9.7 NE 7 8 1020.5 - 0.0 - - 10 - - - -
22/04:30am 9.8 NE 9 10 1020.4 - 0.0 - - 10 - - - -
22/04:00am 11.6 NNE 9 11 1020.3 - 0.0 - - 10 - - - -
22/03:30am 11.4 N 10 11 1020.3 - 0.0 - - 10 - - - -
22/03:00am 11.1 NNE 8 11 1020.5 - 0.0 - - 10 - - - -
22/02:30am 11.5 NNE 7 8 1020.6 - 0.0 - - 10 - - - -
22/02:00am 11.8 N 10 12 1020.6 - 0.0 - - 10 - - - -
22/01:30am 9.4 NE 7 9 1020.7 - 0.0 - - 10 - - - -
22/01:00am 10.8 NNE 9 11 1020.8 - 0.0 - - 10 - - - -
22/12:30am 11.4 NNE 6 8 1020.8 - 0.0 - - 10 - - - -
22/12:00am 10.5 N 5 7 1020.9 - 0.0 - - 10 - - - -
 
Date/Time
EST
Temp
°C
Wind Pressure Rain since
9am
mm
Weather Cloud Vis
km
Sea
Height
m
Swell
Dir  Spd
kts
Gust
kts
hPa Trend Height
m
Period
s
Dir
21/11:30pm 11.2 N 8 9 1020.8 - 0.0 - - 10 - - - -
21/11:00pm 10.8 N 7 9 1020.8 - 0.0 - - 10 - - - -
21/10:30pm 11.8 NNE 8 12 1020.8 - 0.0 - - 10 - - - -
21/10:00pm 11.2 NNE 9 10 1020.7 - 0.0 - - 10 - - - -
21/09:30pm 10.1 NE 6 8 1020.8 - 0.0 - - 10 - - - -
21/09:00pm 11.6 NNE 6 8 1020.7 - 0.0 - - 10 - - - -
21/08:30pm 11.9 NNE 8 11 1020.5 - 0.0 - - 10 - - - -
21/08:00pm 13.0 NNE 10 12 1020.2 - 0.0 - - 10 - - - -
21/07:30pm 11.9 NE 8 10 1020.1 - 0.0 - - 10 - - - -
21/07:00pm 12.9 NE 9 11 1019.8 - 0.0 - - 10 - - - -
21/06:30pm 14.3 NNW 6 7 1019.4 - 0.0 - Partly cloudy 10 - - - -
21/06:00pm 15.7 NNW 4 5 1019.2 - 0.0 - - 10 - - - -
21/05:30pm 15.7 NNW 6 7 1019.0 - 0.0 - Partly cloudy 10 - - - -
21/05:00pm 17.2 NNW 7 10 1018.7 - 0.0 - Partly cloudy 10 - - - -
21/04:30pm 18.8 NNW 7 8 1018.5 - 0.0 - - 10 - - - -
21/04:00pm 19.7 NW 9 13 1018.4 - 0.0 - - 10 - - - -
21/03:30pm 20.1 NNW 12 15 1018.1 - 0.0 - - 10 - - - -
21/03:00pm 20.3 NW 14 18 1017.9 - 0.0 - Mostly clear 10 - - - -
21/02:30pm 19.9 NNW 9 11 1018.1 - 0.0 - - 10 - - - -
21/02:00pm 20.0 N 7 10 1018.0 - 0.0 - Partly cloudy 10 - - - -
21/01:30pm 19.4 NNW 7 9 1018.0 - 0.0 - Partly cloudy 10 - - - -
21/01:00pm 18.4 N 7 8 1018.2 - 0.0 - Partly cloudy 10 - - - -
21/12:30pm 18.1 NW 4 6 1018.5 - 0.0 - Cloudy 10 - - - -
21/12:00pm 18.0 ENE 3 5 1018.8 - 0.0 - Cloudy 10 - - - -
21/11:30am 17.8 E 2 5 1019.1 - 0.0 - Cloudy 10 - - - -
21/11:00am 16.7 NE 4 6 1019.5 - 0.0 - Cloudy 10 - - - -
21/10:30am 15.7 NNE 6 7 1019.6 - 0.0 - Partly cloudy 10 - - - -
21/10:00am 13.5 NE 7 8 1019.4 - 0.0 - - 10 - - - -
21/09:30am 12.3 NE 8 10 1019.4 - 0.0 - Partly cloudy 10 - - - -
21/09:00am 11.5 NE 9 10 1019.4 - 0.2 - Cloudy 10 - - - -
21/08:30am 10.6 NE 8 9 1019.2 - 0.2 - Partly cloudy 10 - - - -
21/08:00am 9.9 NE 7 8 1019.0 - 0.2 - - 10 - - - -
21/07:30am 9.0 NE 8 9 1018.8 - 0.2 - Partly cloudy 10 - - - -
21/07:00am 8.4 NE 8 9 1018.6 - 0.2 - Partly cloudy 10 - - - -
21/06:30am 8.7 NE 10 12 1018.5 - 0.2 - Partly cloudy 10 - - - -

Other Formats:

Comma delimited format used in spreadsheet applications
http://www.bom.gov.au/fwo/IDV60701/IDV60701.94854.axf

JavaScript Object Notation format (JSON) in row-major order
http://www.bom.gov.au/fwo/IDV60701/IDV60701.94854.json